Time;durP1;ratioP1;P1;durP2;ratioP2;P2;SDS_P1;SDS_P2;PMS_P1;PMS_P2;Temp;Humidity;BMP_temperature;BMP_pressure;BME280_temperature;BME280_humidity;BME280_pressure;Samples;Min_cycle;Max_cycle;Signal;HPM_P1;HPM_P2
2022/04/07 00:00:24;;;;;;;5.23;4.73;;;11.70;91.80;;;;;;5018287;28;20187;-53
2022/04/07 00:02:49;;;;;;;5.83;5.33;;;11.70;92.50;;;;;;5016596;28;21231;-56
2022/04/07 00:05:15;;;;;;;4.90;4.60;;;11.70;91.90;;;;;;5018156;28;20203;-55
2022/04/07 00:07:40;;;;;;;5.03;4.63;;;11.70;91.70;;;;;;5020426;28;20237;-53
2022/04/07 00:10:06;;;;;;;5.20;4.90;;;11.60;91.70;;;;;;5013224;28;20283;-55
2022/04/07 00:12:37;;;;;;;5.10;4.70;;;11.60;91.90;;;;;;5005153;28;20215;-54
2022/04/07 00:15:03;;;;;;;4.97;4.67;;;11.60;92.60;;;;;;5007950;28;20987;-53
2022/04/07 00:17:28;;;;;;;4.97;4.63;;;11.60;92.10;;;;;;5003915;28;20525;-51
2022/04/07 00:19:54;;;;;;;4.83;4.50;;;11.60;92.20;;;;;;5022230;28;20433;-55
2022/04/07 00:22:19;;;;;;;4.43;4.17;;;11.60;92.40;;;;;;5013259;28;20215;-55
2022/04/07 00:24:45;;;;;;;5.07;4.70;;;11.50;92.90;;;;;;5012636;28;20670;-55
2022/04/07 00:27:10;;;;;;;5.23;4.87;;;11.60;92.70;;;;;;5025492;28;20285;-54
2022/04/07 00:29:36;;;;;;;5.73;5.20;;;11.50;92.60;;;;;;5011188;28;20207;-56
2022/04/07 00:32:05;;;;;;;5.00;4.60;;;11.50;92.70;;;;;;5023526;28;20184;-55
2022/04/07 00:34:32;;;;;;;4.93;4.53;;;11.60;92.20;;;;;;5019376;28;20448;-51
2022/04/07 00:36:58;;;;;;;4.70;4.40;;;11.60;92.40;;;;;;5027376;28;20434;-53
2022/04/07 00:39:24;;;;;;;4.87;4.57;;;11.50;93.20;;;;;;5014446;28;21223;-54
2022/04/07 00:41:49;;;;;;;5.10;4.73;;;11.40;93.60;;;;;;5018110;28;20425;-55
2022/04/07 00:44:15;;;;;;;4.80;4.50;;;11.40;94.00;;;;;;5014943;28;20801;-51
2022/04/07 00:46:41;;;;;;;5.23;4.83;;;11.30;93.90;;;;;;5009601;28;20207;-55
2022/04/07 00:49:09;;;;;;;4.80;4.47;;;11.30;94.60;;;;;;5007709;28;20496;-50
2022/04/07 00:51:38;;;;;;;5.00;4.60;;;11.30;95.90;;;;;;5015953;28;20541;-55
2022/04/07 00:54:04;;;;;;;4.97;4.60;;;11.30;95.50;;;;;;5011537;28;20486;-53
2022/04/07 00:56:31;;;;;;;5.00;4.60;;;11.30;95.30;;;;;;5011590;28;20487;-55
2022/04/07 00:58:57;;;;;;;4.90;4.37;;;11.30;95.10;;;;;;5012998;28;20450;-54
2022/04/07 01:01:24;;;;;;;4.80;4.40;;;11.20;95.90;;;;;;5013411;28;20476;-50
2022/04/07 01:03:50;;;;;;;4.90;4.40;;;11.30;95.40;;;;;;5014923;28;20184;-55
2022/04/07 01:06:18;;;;;;;4.50;4.20;;;11.20;96.70;;;;;;5008286;28;20485;-54
2022/04/07 01:08:43;;;;;;;4.27;3.97;;;11.30;96.20;;;;;;5021945;28;20870;-54
2022/04/07 01:11:09;;;;;;;4.63;4.23;;;11.20;96.20;;;;;;5012315;28;20474;-51
2022/04/07 01:14:01;;;;;;;4.83;4.50;;;11.20;96.80;;;;;;5018578;28;20186;-54
2022/04/07 01:16:28;;;;;;;5.07;4.70;;;11.20;97.00;;;;;;5010585;28;20207;-53
2022/04/07 01:18:55;;;;;;;4.03;3.83;;;11.30;96.60;;;;;;5014992;28;20488;-55
2022/04/07 01:21:21;;;;;;;4.67;4.27;;;11.30;96.30;;;;;;5015681;28;20830;-52
2022/04/07 01:24:04;;;;;;;4.77;4.40;;;11.30;96.50;;;;;;5011804;28;20496;-55
2022/04/07 01:26:38;;;;;;;5.23;4.70;;;11.20;96.70;;;;;;5010761;28;20482;-55
2022/04/07 01:29:06;;;;;;;4.10;3.80;;;11.30;96.90;;;;;;5014258;28;20963;-54
2022/04/07 01:31:32;;;;;;;4.67;4.27;;;11.20;97.00;;;;;;5011093;28;20434;-54
2022/04/07 01:33:59;;;;;;;4.50;4.10;;;11.20;97.10;;;;;;5023725;28;20492;-52
2022/04/07 01:36:26;;;;;;;4.30;4.00;;;11.30;96.90;;;;;;5018961;28;20774;-55
2022/04/07 01:38:52;;;;;;;4.93;4.53;;;11.20;96.80;;;;;;5012110;28;20440;-55
2022/04/07 01:41:19;;;;;;;4.53;4.23;;;11.10;97.30;;;;;;5013454;28;20450;-54
2022/04/07 01:43:47;;;;;;;4.70;4.40;;;11.10;97.80;;;;;;5021713;28;20435;-54
2022/04/07 01:46:13;;;;;;;4.03;3.73;;;11.10;98.40;;;;;;5010482;28;20509;-55
2022/04/07 01:48:40;;;;;;;4.20;3.90;;;11.10;97.80;;;;;;5013707;28;20427;-56
2022/04/07 01:51:08;;;;;;;4.17;3.87;;;11.00;98.10;;;;;;5009458;28;20542;-55
2022/04/07 01:53:34;;;;;;;4.30;4.00;;;11.00;98.30;;;;;;5023279;28;20463;-51
2022/04/07 01:56:01;;;;;;;3.93;3.63;;;11.00;99.20;;;;;;5015418;28;20457;-54
2022/04/07 01:58:27;;;;;;;4.73;4.43;;;11.00;99.10;;;;;;5016167;28;20437;-54
2022/04/07 02:00:54;;;;;;;3.80;3.60;;;10.90;99.10;;;;;;5011705;28;20537;-54
2022/04/07 02:03:20;;;;;;;4.00;3.70;;;10.90;99.60;;;;;;5017903;28;21239;-53
2022/04/07 02:05:46;;;;;;;4.30;3.90;;;10.70;99.90;;;;;;5010951;28;20466;-54
2022/04/07 02:08:11;;;;;;;4.57;4.17;;;10.80;99.90;;;;;;5012012;28;20590;-52
2022/04/07 02:10:37;;;;;;;4.20;3.80;;;10.80;99.90;;;;;;5010082;28;20186;-54
2022/04/07 02:13:02;;;;;;;4.13;3.83;;;10.60;99.90;;;;;;5010608;28;20258;-53
2022/04/07 02:15:28;;;;;;;4.07;3.77;;;10.60;99.90;;;;;;5010813;28;20188;-53
2022/04/07 02:17:54;;;;;;;3.97;3.67;;;10.50;99.90;;;;;;5010075;28;20191;-54
2022/04/07 02:20:20;;;;;;;4.30;3.93;;;10.40;99.90;;;;;;5013663;28;20210;-49
2022/04/07 02:22:45;;;;;;;3.97;3.57;;;10.40;99.90;;;;;;5010341;28;20442;-55
2022/04/07 02:25:11;;;;;;;3.90;3.70;;;10.50;99.90;;;;;;5010709;28;20176;-53
2022/04/07 02:27:39;;;;;;;3.90;3.63;;;10.40;99.90;;;;;;5018105;28;20299;-56
2022/04/07 02:30:08;;;;;;;3.73;3.50;;;10.50;99.90;;;;;;5012883;28;20198;-54
2022/04/07 02:32:34;;;;;;;4.20;3.40;;;10.60;99.90;;;;;;5015810;28;20813;-54
2022/04/07 02:35:00;;;;;;;3.87;3.57;;;10.60;99.90;;;;;;5012795;28;20469;-57
2022/04/07 02:37:25;;;;;;;4.10;3.80;;;10.50;99.90;;;;;;5010343;28;20211;-55
2022/04/07 02:39:52;;;;;;;4.30;4.00;;;10.60;99.90;;;;;;5010572;28;20445;-54
2022/04/07 02:42:18;;;;;;;3.80;3.50;;;10.60;99.90;;;;;;5003164;28;20646;-56
2022/04/07 02:44:44;;;;;;;3.97;3.67;;;10.50;99.90;;;;;;5009398;28;20524;-56
2022/04/07 02:47:09;;;;;;;3.70;3.40;;;10.50;99.90;;;;;;5014924;28;20222;-54
2022/04/07 02:49:35;;;;;;;3.97;3.67;;;10.50;99.90;;;;;;5022589;28;20258;-51
2022/04/07 02:52:00;;;;;;;4.20;3.80;;;10.60;99.90;;;;;;5023337;28;20194;-54
2022/04/07 02:54:26;;;;;;;3.77;3.47;;;10.60;99.90;;;;;;5012738;28;20235;-53
2022/04/07 02:56:51;;;;;;;3.87;3.57;;;10.70;99.90;;;;;;5008296;28;20259;-55
2022/04/07 02:59:17;;;;;;;4.07;3.77;;;10.70;99.90;;;;;;5009305;28;20579;-53
2022/04/07 03:01:43;;;;;;;4.40;4.00;;;10.70;99.90;;;;;;5024058;28;20179;-55
2022/04/07 03:04:09;;;;;;;3.47;3.27;;;10.80;99.90;;;;;;5008122;28;20189;-55
2022/04/07 03:06:35;;;;;;;4.17;3.87;;;10.80;99.90;;;;;;5020647;28;20547;-54
2022/04/07 03:09:00;;;;;;;3.67;3.47;;;10.80;99.90;;;;;;5015545;28;20496;-56
2022/04/07 03:11:26;;;;;;;4.07;3.77;;;11.00;99.90;;;;;;5028486;28;20179;-54
2022/04/07 03:13:52;;;;;;;4.00;3.70;;;11.10;99.90;;;;;;5014163;28;20201;-54
2022/04/07 03:16:17;;;;;;;3.20;2.90;;;11.10;99.90;;;;;;5024919;28;20584;-55
2022/04/07 03:18:43;;;;;;;4.80;3.43;;;11.10;99.90;;;;;;5011011;28;20972;-52
2022/04/07 03:21:08;;;;;;;3.60;3.40;;;10.90;99.90;;;;;;5015615;28;20188;-56
2022/04/07 03:23:34;;;;;;;3.60;3.40;;;10.70;99.90;;;;;;5025840;28;20211;-55
2022/04/07 03:26:01;;;;;;;4.47;4.17;;;10.60;99.90;;;;;;5007765;28;20218;-55
2022/04/07 03:28:26;;;;;;;3.50;3.17;;;10.60;99.90;;;;;;5010627;28;20694;-55
2022/04/07 03:30:52;;;;;;;3.43;3.20;;;10.50;99.90;;;;;;5004862;28;20525;-54
2022/04/07 03:33:18;;;;;;;4.43;3.80;;;10.30;99.90;;;;;;5008434;28;20214;-54
2022/04/07 03:35:44;;;;;;;3.70;3.50;;;10.30;99.90;;;;;;5024577;28;20417;-50
2022/04/07 03:38:10;;;;;;;3.93;3.20;;;10.20;99.90;;;;;;5008479;28;20472;-54
2022/04/07 03:40:36;;;;;;;3.80;3.50;;;10.20;99.90;;;;;;5013137;28;20192;-53
2022/04/07 03:43:02;;;;;;;3.47;3.17;;;10.20;99.90;;;;;;5009711;28;20437;-55
2022/04/07 03:45:28;;;;;;;3.77;3.47;;;10.20;99.90;;;;;;5009681;28;20186;-53
2022/04/07 03:47:54;;;;;;;3.50;3.20;;;10.10;99.90;;;;;;5009847;28;21157;-50
2022/04/07 03:50:19;;;;;;;5.33;3.60;;;10.20;99.90;;;;;;5008902;28;20186;-53
2022/04/07 03:52:45;;;;;;;3.97;3.63;;;10.30;99.90;;;;;;5020169;28;20191;-54
2022/04/07 03:55:10;;;;;;;4.40;4.00;;;10.30;99.90;;;;;;5025066;28;20227;-56
2022/04/07 03:57:36;;;;;;;4.10;3.70;;;10.20;99.90;;;;;;5007916;28;20211;-49
2022/04/07 04:00:04;;;;;;;3.70;3.30;;;10.30;99.90;;;;;;5019139;28;20270;-53
2022/04/07 04:02:29;;;;;;;3.73;3.43;;;10.20;99.90;;;;;;5012552;28;20622;-52
2022/04/07 04:04:55;;;;;;;3.50;3.20;;;10.40;99.90;;;;;;5008526;28;20492;-53
2022/04/07 04:07:21;;;;;;;4.87;3.70;;;10.30;99.90;;;;;;5008415;28;20223;-55
2022/04/07 04:09:47;;;;;;;3.83;3.53;;;10.30;99.90;;;;;;5009055;28;20185;-54
2022/04/07 04:12:13;;;;;;;3.63;3.43;;;10.40;99.90;;;;;;5022548;28;20176;-55
2022/04/07 04:14:38;;;;;;;3.60;3.40;;;10.50;99.90;;;;;;5015466;28;20927;-49
2022/04/07 04:17:04;;;;;;;3.80;3.60;;;10.50;99.90;;;;;;5008295;28;20202;-51
2022/04/07 04:19:29;;;;;;;3.73;3.47;;;10.40;99.90;;;;;;5018812;28;21189;-51
2022/04/07 04:21:56;;;;;;;3.60;3.30;;;10.30;99.90;;;;;;5015773;28;20183;-53
2022/04/07 04:24:21;;;;;;;3.40;3.10;;;10.40;99.90;;;;;;5017387;28;20657;-53
2022/04/07 04:26:47;;;;;;;3.80;3.50;;;10.40;99.90;;;;;;5013288;28;20458;-52
2022/04/07 04:29:13;;;;;;;3.97;3.67;;;10.30;99.90;;;;;;5002965;28;20260;-54
2022/04/07 04:31:38;;;;;;;3.33;3.00;;;10.20;99.90;;;;;;5015192;28;20196;-54
2022/04/07 04:34:04;;;;;;;3.40;3.20;;;10.30;99.90;;;;;;5017401;28;20187;-55
2022/04/07 04:36:29;;;;;;;4.80;3.13;;;10.30;99.90;;;;;;5015357;28;20273;-52
2022/04/07 04:38:55;;;;;;;4.00;3.70;;;10.30;99.90;;;;;;5008076;28;20310;-55
2022/04/07 04:41:20;;;;;;;4.20;3.30;;;10.40;99.90;;;;;;5011870;28;20828;-53
2022/04/07 04:43:46;;;;;;;3.60;3.40;;;10.30;99.90;;;;;;5008633;28;20187;-53
2022/04/07 04:46:12;;;;;;;3.50;3.30;;;10.60;99.90;;;;;;5023458;28;20202;-50
2022/04/07 04:48:38;;;;;;;3.50;3.30;;;10.60;99.90;;;;;;5016251;28;20184;-54
2022/04/07 04:51:04;;;;;;;3.73;3.47;;;10.80;99.90;;;;;;5015266;28;20488;-51
2022/04/07 04:53:30;;;;;;;3.00;2.80;;;10.90;99.90;;;;;;5017462;28;20484;-56
2022/04/07 04:55:55;;;;;;;3.60;3.30;;;10.90;99.90;;;;;;5025514;28;20441;-55
2022/04/07 04:58:21;;;;;;;3.37;3.17;;;11.00;99.90;;;;;;5011998;28;20211;-53
2022/04/07 05:00:47;;;;;;;3.20;2.97;;;11.10;99.90;;;;;;5016920;28;20184;-52
2022/04/07 05:03:12;;;;;;;3.90;3.50;;;11.20;99.90;;;;;;5017086;28;20175;-52
2022/04/07 05:05:38;;;;;;;4.40;3.53;;;11.30;99.90;;;;;;5024309;28;20184;-53
2022/04/07 05:08:04;;;;;;;3.40;3.10;;;11.30;99.90;;;;;;5016929;28;20210;-56
2022/04/07 05:10:29;;;;;;;3.20;3.00;;;11.40;99.90;;;;;;5030346;28;20732;-55
2022/04/07 05:12:55;;;;;;;3.30;3.10;;;11.30;99.90;;;;;;5028762;28;20409;-55
2022/04/07 05:15:21;;;;;;;3.43;3.23;;;11.20;99.90;;;;;;5032095;28;20174;-54
2022/04/07 05:17:51;;;;;;;3.50;3.30;;;11.30;99.90;;;;;;5025763;28;20183;-53
2022/04/07 05:20:16;;;;;;;3.17;2.97;;;11.40;99.90;;;;;;5013073;28;21033;-53
2022/04/07 05:22:42;;;;;;;3.23;3.03;;;11.40;99.90;;;;;;5026592;28;20571;-55
2022/04/07 05:25:08;;;;;;;3.43;3.23;;;11.40;99.90;;;;;;5027402;28;20184;-55
2022/04/07 05:27:36;;;;;;;3.53;3.23;;;11.50;99.90;;;;;;5011510;28;20207;-54
2022/04/07 05:30:07;;;;;;;2.90;2.70;;;11.60;99.90;;;;;;5021464;28;21023;-51
2022/04/07 05:32:34;;;;;;;2.70;2.50;;;11.70;99.90;;;;;;5026172;28;20436;-56
2022/04/07 05:35:00;;;;;;;2.73;2.53;;;11.80;99.90;;;;;;5028306;28;20446;-55
2022/04/07 05:37:26;;;;;;;3.00;2.80;;;11.80;99.90;;;;;;5011516;28;20933;-53
2022/04/07 05:39:54;;;;;;;3.03;2.67;;;11.70;99.90;;;;;;5011158;28;20538;-54
2022/04/07 05:42:19;;;;;;;2.60;2.40;;;11.80;99.90;;;;;;5023185;28;20195;-53
2022/04/07 05:44:45;;;;;;;2.87;2.77;;;12.00;99.90;;;;;;5031855;28;21272;-55
2022/04/07 05:47:11;;;;;;;3.00;2.80;;;12.00;99.70;;;;;;5018131;28;20553;-53
2022/04/07 05:49:36;;;;;;;3.27;3.07;;;12.10;99.40;;;;;;5029262;28;20275;-52
2022/04/07 05:52:04;;;;;;;2.80;2.60;;;12.10;99.30;;;;;;5010115;28;20184;-55
2022/04/07 05:54:30;;;;;;;3.43;3.23;;;12.20;98.70;;;;;;5011705;28;20578;-53
2022/04/07 05:56:56;;;;;;;3.00;2.70;;;12.30;97.60;;;;;;5018633;28;20418;-54
2022/04/07 05:59:23;;;;;;;3.30;3.00;;;12.40;97.30;;;;;;5012156;28;20446;-53
2022/04/07 06:01:49;;;;;;;3.00;2.80;;;12.40;97.40;;;;;;5030779;28;20432;-53
2022/04/07 06:04:15;;;;;;;2.90;2.70;;;12.40;97.20;;;;;;5012647;28;20241;-55
2022/04/07 06:06:40;;;;;;;2.77;2.57;;;12.30;97.40;;;;;;5022684;28;20461;-55
2022/04/07 06:09:06;;;;;;;3.00;2.80;;;12.40;97.80;;;;;;5012121;28;20872;-52
2022/04/07 06:11:32;;;;;;;2.47;2.37;;;12.60;97.10;;;;;;5029871;28;20179;-53
2022/04/07 06:13:58;;;;;;;2.70;2.60;;;12.60;97.20;;;;;;5024656;28;20438;-55
2022/04/07 06:16:23;;;;;;;2.87;2.67;;;12.60;96.40;;;;;;5022759;28;20665;-56
2022/04/07 06:18:49;;;;;;;2.73;2.63;;;12.60;96.40;;;;;;5021603;28;20187;-55
2022/04/07 06:21:14;;;;;;;2.90;2.70;;;12.60;95.90;;;;;;5031387;28;20194;-54
2022/04/07 06:23:40;;;;;;;2.70;2.50;;;12.60;95.70;;;;;;5018746;28;20195;-53
2022/04/07 06:26:06;;;;;;;3.17;2.80;;;12.60;95.90;;;;;;5010844;28;20188;-57
2022/04/07 06:28:32;;;;;;;5.10;2.90;;;12.70;95.50;;;;;;5010187;28;20291;-54
2022/04/07 06:30:57;;;;;;;2.87;2.67;;;12.70;95.20;;;;;;5014612;28;20439;-55
2022/04/07 06:33:23;;;;;;;3.00;2.80;;;12.70;95.00;;;;;;5010443;28;20191;-50
2022/04/07 06:35:50;;;;;;;2.50;2.40;;;12.80;94.70;;;;;;5024750;28;20175;-52
2022/04/07 06:38:15;;;;;;;2.93;2.83;;;12.90;94.00;;;;;;5022778;28;20449;-56
2022/04/07 06:40:41;;;;;;;2.80;2.60;;;13.00;93.50;;;;;;5010657;28;20434;-52
2022/04/07 06:43:06;;;;;;;2.67;2.53;;;13.00;93.50;;;;;;5017480;28;20196;-56
2022/04/07 06:45:32;;;;;;;2.90;2.50;;;13.00;93.10;;;;;;5028260;28;20210;-54
2022/04/07 06:47:57;;;;;;;2.97;2.77;;;13.10;92.80;;;;;;5027056;28;22102;-54
2022/04/07 06:50:25;;;;;;;2.33;2.23;;;13.20;92.60;;;;;;5023667;28;20192;-51
2022/04/07 06:52:51;;;;;;;3.13;2.57;;;13.20;92.30;;;;;;5007666;28;20180;-56
2022/04/07 06:55:17;;;;;;;2.97;2.77;;;13.30;92.20;;;;;;5009516;28;20470;-52
2022/04/07 06:58:10;;;;;;;2.60;2.50;;;13.20;91.90;;;;;;5009390;28;20422;-56
2022/04/07 07:00:42;;;;;;;2.60;2.50;;;13.10;91.70;;;;;;5005843;28;20449;-57
2022/04/07 07:03:08;;;;;;;2.60;2.50;;;13.10;92.00;;;;;;5004636;28;20594;-56
2022/04/07 07:05:35;;;;;;;2.60;2.50;;;13.00;92.20;;;;;;5008719;28;20536;-54
2022/04/07 07:08:14;;;;;;;2.43;2.30;;;13.00;92.30;;;;;;5008153;28;20258;-56
2022/04/07 07:10:40;;;;;;;2.63;2.30;;;13.10;92.30;;;;;;5010419;28;20514;-55
2022/04/07 07:13:06;;;;;;;2.60;2.50;;;13.20;92.40;;;;;;5009377;28;21127;-58
2022/04/07 07:15:32;;;;;;;2.40;2.30;;;13.20;92.80;;;;;;5010665;28;20402;-56
2022/04/07 07:17:57;;;;;;;2.87;2.67;;;13.20;92.20;;;;;;5010522;28;20190;-57
2022/04/07 07:20:23;;;;;;;3.30;3.10;;;13.20;92.20;;;;;;4992795;28;20200;-57
2022/04/07 07:22:48;;;;;;;2.47;2.37;;;13.30;92.40;;;;;;4993851;28;20581;-51
2022/04/07 07:25:14;;;;;;;2.67;2.57;;;13.30;91.80;;;;;;5008145;28;20172;-55
2022/04/07 07:27:45;;;;;;;2.67;2.47;;;13.30;92.10;;;;;;5009549;28;20222;-54
2022/04/07 07:30:12;;;;;;;2.57;2.47;;;13.30;91.80;;;;;;5008206;28;20418;-57
2022/04/07 07:32:39;;;;;;;2.80;2.70;;;13.20;91.70;;;;;;5009499;28;20925;-56
2022/04/07 07:35:07;;;;;;;2.77;2.67;;;13.20;91.70;;;;;;5009078;28;20433;-54
2022/04/07 07:37:32;;;;;;;2.40;2.30;;;13.30;91.70;;;;;;5009681;28;20422;-54
2022/04/07 07:40:08;;;;;;;2.50;2.40;;;13.30;91.50;;;;;;5008591;28;20446;-53
2022/04/07 07:42:36;;;;;;;2.50;2.40;;;13.40;91.70;;;;;;5007593;28;20269;-54
2022/04/07 07:45:02;;;;;;;2.20;2.10;;;13.50;91.20;;;;;;5019255;28;20458;-57
2022/04/07 07:47:28;;;;;;;2.30;2.20;;;13.60;90.80;;;;;;5018117;28;20547;-52
2022/04/07 07:49:54;;;;;;;2.40;2.30;;;13.60;91.00;;;;;;5014096;28;20533;-55
2022/04/07 07:52:19;;;;;;;2.60;2.50;;;13.60;90.90;;;;;;5021934;28;20180;-55
2022/04/07 07:54:45;;;;;;;2.60;2.50;;;13.70;90.80;;;;;;5010458;28;20471;-54
2022/04/07 07:57:10;;;;;;;2.20;2.10;;;13.70;90.10;;;;;;5024718;28;20738;-52
2022/04/07 07:59:36;;;;;;;2.50;2.40;;;13.70;90.50;;;;;;5017580;28;20547;-56
2022/04/07 08:02:01;;;;;;;2.53;2.43;;;13.70;90.30;;;;;;5013565;28;20191;-53
2022/04/07 08:04:27;;;;;;;2.30;2.20;;;13.80;90.10;;;;;;5023976;28;20275;-55
2022/04/07 08:06:53;;;;;;;2.27;2.13;;;13.80;89.70;;;;;;5019074;28;20229;-53
2022/04/07 08:09:18;;;;;;;2.47;2.37;;;13.90;90.10;;;;;;5017998;28;20203;-55
2022/04/07 08:11:44;;;;;;;2.40;2.30;;;14.00;88.90;;;;;;5010600;28;20186;-53
2022/04/07 08:14:10;;;;;;;2.30;2.20;;;14.10;88.30;;;;;;5018805;28;20179;-55
2022/04/07 08:16:37;;;;;;;2.30;2.10;;;13.90;88.90;;;;;;5003208;28;20608;-56
2022/04/07 08:19:03;;;;;;;2.30;2.20;;;14.00;88.50;;;;;;4999598;28;20191;-55
2022/04/07 08:21:28;;;;;;;2.70;2.50;;;14.10;89.10;;;;;;4999076;28;21032;-56
2022/04/07 08:23:54;;;;;;;2.00;1.90;;;14.30;88.70;;;;;;4998492;28;20431;-54
2022/04/07 08:26:20;;;;;;;2.27;2.17;;;14.40;86.70;;;;;;4988965;28;20235;-54
2022/04/07 08:28:46;;;;;;;6.73;2.97;;;14.50;86.30;;;;;;4988641;28;20195;-55
2022/04/07 08:31:11;;;;;;;2.40;2.30;;;14.60;85.20;;;;;;4991056;28;21013;-55
2022/04/07 08:33:37;;;;;;;2.63;2.30;;;14.70;85.10;;;;;;4990410;28;20411;-56
2022/04/07 08:36:03;;;;;;;2.67;2.57;;;14.70;85.50;;;;;;5003221;28;20173;-52
2022/04/07 08:38:29;;;;;;;2.50;2.40;;;14.70;84.20;;;;;;4992193;28;20275;-57
2022/04/07 08:40:55;;;;;;;2.40;2.30;;;14.60;83.90;;;;;;4991864;28;20431;-56
2022/04/07 08:43:22;;;;;;;2.50;2.40;;;14.50;84.60;;;;;;5011257;28;20502;-55
2022/04/07 08:45:49;;;;;;;2.67;2.57;;;14.80;84.90;;;;;;5015171;28;20499;-52
2022/04/07 08:48:15;;;;;;;2.87;2.70;;;14.90;83.30;;;;;;5028125;28;20458;-52
2022/04/07 08:50:42;;;;;;;2.87;2.67;;;14.80;83.90;;;;;;5028102;28;20428;-55
2022/04/07 08:53:09;;;;;;;2.70;2.60;;;14.90;84.40;;;;;;5027814;28;20833;-56
2022/04/07 08:55:35;;;;;;;2.73;2.57;;;15.30;84.00;;;;;;5028041;28;20865;-53
2022/04/07 08:58:05;;;;;;;2.43;2.33;;;15.60;81.20;;;;;;5027943;28;20463;-54
2022/04/07 09:00:31;;;;;;;2.60;2.50;;;15.40;80.30;;;;;;5027976;28;20191;-49
2022/04/07 09:02:57;;;;;;;2.80;2.70;;;15.10;80.80;;;;;;5014527;28;20783;-53
2022/04/07 09:05:25;;;;;;;2.53;2.43;;;15.10;80.20;;;;;;5008410;28;20442;-54
2022/04/07 09:07:55;;;;;;;3.50;3.17;;;15.30;78.90;;;;;;5021807;28;20195;-54
2022/04/07 09:10:23;;;;;;;2.80;2.70;;;15.60;76.70;;;;;;5027717;28;20417;-53
2022/04/07 09:12:50;;;;;;;2.70;2.60;;;15.90;78.20;;;;;;5024515;28;20442;-56
2022/04/07 09:15:16;;;;;;;3.10;2.70;;;16.40;72.30;;;;;;5022261;28;20467;-53
2022/04/07 09:17:59;;;;;;;2.90;2.70;;;16.10;72.50;;;;;;5027910;28;20448;-56
2022/04/07 09:20:24;;;;;;;2.80;2.70;;;16.40;71.00;;;;;;5006221;28;20248;-53
2022/04/07 09:22:58;;;;;;;2.60;2.50;;;16.70;69.10;;;;;;5010763;28;21236;-56
2022/04/07 09:25:24;;;;;;;3.10;3.00;;;17.30;68.10;;;;;;5026571;28;20194;-54
2022/04/07 09:27:49;;;;;;;3.20;3.10;;;17.60;65.20;;;;;;5013565;28;20479;-53
2022/04/07 09:30:15;;;;;;;3.00;2.90;;;17.30;65.20;;;;;;5014329;28;20409;-57
2022/04/07 09:32:43;;;;;;;3.27;3.07;;;17.30;63.20;;;;;;5008221;28;20621;-55
2022/04/07 09:35:09;;;;;;;2.90;2.80;;;16.90;63.80;;;;;;5000342;28;20216;-53
2022/04/07 09:37:34;;;;;;;3.27;3.10;;;17.00;62.60;;;;;;5006171;28;20477;-53
2022/04/07 09:40:10;;;;;;;3.20;3.10;;;17.20;61.30;;;;;;4992910;28;20503;-53
2022/04/07 09:42:37;;;;;;;3.10;3.00;;;17.60;60.50;;;;;;4995357;28;20214;-55
2022/04/07 09:45:07;;;;;;;3.20;3.10;;;18.40;59.80;;;;;;4994756;28;20418;-50
2022/04/07 09:47:37;;;;;;;3.00;2.90;;;17.70;58.20;;;;;;4990845;28;20859;-52
2022/04/07 09:50:04;;;;;;;2.77;2.67;;;17.00;59.20;;;;;;4990275;28;20471;-51
2022/04/07 09:52:30;;;;;;;2.80;2.70;;;16.70;60.60;;;;;;4991839;28;20416;-52
2022/04/07 09:55:06;;;;;;;3.10;3.00;;;16.70;61.90;;;;;;4990435;28;20467;-54
2022/04/07 09:57:33;;;;;;;3.10;2.90;;;17.10;60.70;;;;;;4990070;28;20421;-54
2022/04/07 10:00:01;;;;;;;3.00;2.90;;;16.90;60.40;;;;;;4993310;28;20479;-52
2022/04/07 10:02:26;;;;;;;2.80;2.70;;;17.40;60.60;;;;;;4991454;28;20434;-54
2022/04/07 10:04:54;;;;;;;2.70;2.60;;;17.80;58.50;;;;;;4990149;28;20987;-54
2022/04/07 10:07:20;;;;;;;2.90;2.70;;;17.20;58.10;;;;;;4990909;28;20219;-56
2022/04/07 10:09:47;;;;;;;2.90;2.80;;;17.30;59.50;;;;;;4991278;28;20425;-56
2022/04/07 10:12:12;;;;;;;3.43;2.47;;;17.00;58.60;;;;;;4991511;28;20429;-56
2022/04/07 10:14:38;;;;;;;2.70;2.60;;;16.60;57.90;;;;;;5005407;28;20513;-54
2022/04/07 10:17:10;;;;;;;2.70;2.60;;;16.60;59.60;;;;;;5006723;28;20188;-54
2022/04/07 10:20:00;;;;;;;2.67;2.57;;;16.50;57.50;;;;;;5010676;28;20415;-52
2022/04/07 10:22:58;;;;;;;3.07;2.97;;;16.30;58.50;;;;;;5004704;28;20541;-55
2022/04/07 10:25:25;;;;;;;2.67;2.57;;;16.20;58.50;;;;;;5010427;28;20526;-53
2022/04/07 10:27:54;;;;;;;2.93;2.83;;;16.10;58.30;;;;;;5010725;28;20952;-55
2022/04/07 10:30:20;;;;;;;2.97;2.87;;;16.00;59.20;;;;;;5009823;28;20430;-56
2022/04/07 10:32:49;;;;;;;2.87;2.77;;;16.10;59.10;;;;;;5010667;28;20418;-55
2022/04/07 10:35:30;;;;;;;2.97;2.77;;;16.00;59.20;;;;;;5009958;28;20792;-54
2022/04/07 10:38:00;;;;;;;2.87;2.77;;;16.00;59.30;;;;;;5010984;28;20446;-52
2022/04/07 10:40:36;;;;;;;3.13;3.03;;;16.10;60.30;;;;;;5008810;28;20434;-53
2022/04/07 10:43:10;;;;;;;2.90;2.80;;;16.40;59.30;;;;;;5006341;28;20439;-53
2022/04/07 10:45:37;;;;;;;3.10;3.00;;;16.30;58.60;;;;;;5023007;28;21112;-55
2022/04/07 10:48:28;;;;;;;2.70;2.60;;;16.00;59.60;;;;;;5010933;28;20863;-51
2022/04/07 10:51:08;;;;;;;3.10;3.00;;;16.10;59.80;;;;;;5017496;28;20424;-54
2022/04/07 10:53:39;;;;;;;2.87;2.77;;;16.10;60.20;;;;;;5012842;28;20939;-55
2022/04/07 10:56:32;;;;;;;3.00;2.90;;;16.00;59.80;;;;;;5028038;28;20431;-53
2022/04/07 10:59:16;;;;;;;2.90;2.80;;;16.20;60.50;;;;;;5013926;28;20661;-55
2022/04/07 11:01:42;;;;;;;2.90;2.80;;;16.30;58.70;;;;;;5020774;28;20428;-53
2022/04/07 11:04:22;;;;;;;2.70;2.60;;;16.10;58.40;;;;;;5009373;28;21103;-51
2022/04/07 11:07:13;;;;;;;2.60;2.50;;;16.10;59.30;;;;;;5011792;28;20238;-56
2022/04/07 11:09:57;;;;;;;2.50;2.40;;;16.00;59.00;;;;;;5013409;28;20514;-54
2022/04/07 11:12:39;;;;;;;2.40;2.30;;;16.00;59.70;;;;;;5004161;28;20512;-54
2022/04/07 11:15:07;;;;;;;2.77;2.60;;;16.00;60.20;;;;;;5021389;28;20438;-52
2022/04/07 11:17:36;;;;;;;2.70;2.50;;;16.20;60.00;;;;;;5029607;28;20421;-52
2022/04/07 11:20:08;;;;;;;2.83;2.73;;;16.20;59.70;;;;;;5028301;28;20413;-54
2022/04/07 11:22:55;;;;;;;2.80;2.70;;;16.50;61.80;;;;;;5018164;28;20455;-54
2022/04/07 11:25:22;;;;;;;2.80;2.70;;;16.70;59.10;;;;;;5003066;28;20423;-52
2022/04/07 11:28:10;;;;;;;2.80;2.70;;;16.50;59.30;;;;;;5016797;28;20473;-52
2022/04/07 11:30:49;;;;;;;3.20;3.00;;;16.40;60.10;;;;;;5019151;28;20415;-56
2022/04/07 11:33:21;;;;;;;3.33;3.00;;;16.40;60.40;;;;;;5017318;28;20431;-53
2022/04/07 11:35:58;;;;;;;4.20;3.90;;;16.30;61.70;;;;;;5009730;28;20412;-53
2022/04/07 11:38:28;;;;;;;3.00;2.80;;;16.30;61.70;;;;;;5011325;28;20455;-55
2022/04/07 11:41:04;;;;;;;2.93;2.83;;;16.30;61.50;;;;;;5009203;28;20430;-53
2022/04/07 11:43:31;;;;;;;2.57;2.47;;;16.40;62.40;;;;;;5023043;28;20437;-54
2022/04/07 11:45:58;;;;;;;2.80;2.70;;;16.50;62.40;;;;;;5010862;28;20434;-53
2022/04/07 11:48:29;;;;;;;3.13;3.00;;;16.30;63.00;;;;;;5022147;28;20495;-52
2022/04/07 11:51:00;;;;;;;3.00;2.90;;;16.20;63.40;;;;;;5021283;28;20432;-55
2022/04/07 11:53:26;;;;;;;3.10;2.90;;;16.20;63.00;;;;;;5009269;28;20497;-55
2022/04/07 11:55:52;;;;;;;2.80;2.60;;;16.30;63.60;;;;;;5019527;28;20431;-52
2022/04/07 11:58:18;;;;;;;2.83;2.73;;;16.30;63.60;;;;;;5013868;28;20419;-52
2022/04/07 12:00:43;;;;;;;2.63;2.50;;;16.40;63.40;;;;;;5026225;28;20700;-53
2022/04/07 12:03:09;;;;;;;2.87;2.70;;;16.30;63.80;;;;;;5009738;28;20291;-54
2022/04/07 12:05:41;;;;;;;2.77;2.67;;;16.30;63.70;;;;;;5017266;28;20206;-51
2022/04/07 12:08:11;;;;;;;2.47;2.37;;;16.40;62.50;;;;;;5026594;28;20304;-54
2022/04/07 12:10:38;;;;;;;2.50;2.40;;;16.30;63.30;;;;;;5017377;28;20454;-55
2022/04/07 12:13:04;;;;;;;2.97;2.77;;;16.30;64.30;;;;;;5008127;28;20438;-52
2022/04/07 12:15:30;;;;;;;2.60;2.50;;;16.40;64.50;;;;;;5025997;28;20423;-51
2022/04/07 12:18:04;;;;;;;2.53;2.43;;;16.90;62.80;;;;;;5020698;28;20521;-53
2022/04/07 12:20:30;;;;;;;2.70;2.60;;;16.70;62.60;;;;;;5011292;28;20641;-53
2022/04/07 12:23:10;;;;;;;2.57;2.47;;;16.70;63.00;;;;;;5019540;28;20476;-54
2022/04/07 12:25:36;;;;;;;2.50;2.40;;;16.80;63.30;;;;;;5020001;28;20656;-52
2022/04/07 12:28:20;;;;;;;2.60;2.50;;;16.80;61.90;;;;;;5028475;28;20968;-54
2022/04/07 12:30:48;;;;;;;2.40;2.30;;;16.70;63.10;;;;;;5010170;28;20513;-55
2022/04/07 12:33:43;;;;;;;2.63;2.53;;;16.70;62.10;;;;;;5022156;28;20515;-54
2022/04/07 12:36:16;;;;;;;2.43;1.93;;;16.80;63.10;;;;;;5011192;28;20531;-52
2022/04/07 12:38:59;;;;;;;2.40;2.30;;;17.00;61.20;;;;;;5006725;28;20442;-55
2022/04/07 12:41:39;;;;;;;2.57;2.47;;;16.80;61.20;;;;;;5007886;28;20740;-55
2022/04/07 12:44:05;;;;;;;2.60;2.50;;;16.60;62.00;;;;;;5007757;28;20453;-53
2022/04/07 12:46:48;;;;;;;2.50;2.40;;;16.80;62.80;;;;;;5007919;28;20513;-54
2022/04/07 12:49:14;;;;;;;2.67;2.57;;;16.90;62.10;;;;;;5008470;28;20466;-56
2022/04/07 12:51:41;;;;;;;3.23;3.13;;;17.30;62.20;;;;;;5007492;28;20930;-57